Terminal Aerodrome Forecast
Issued by NWS

Home | Current Version | Previous Version | Text Only | Print | Product List | Glossary On
Versions: 1 2 3 4 5 6 7 8 9 10 11 12 13 14 15 16 17 18 19 20 21 22 23 24
000
FTUS44 KEWX 222339
TAFSSF
TAF
KSSF 222339Z 2300/2324 12012G20KT P6SM SCT030 BKN120
     FM230200 13009KT P6SM SCT020 BKN050
     FM230400 12004KT P6SM BKN020
     FM230900 14005KT 5SM BR OVC006
     FM231500 15009KT 6SM BR VCSH OVC015
     FM232000 15013KT P6SM VCTS BKN030CB BKN050=

USA.gov is the U.S. government's official web portal to all federal, state and local government web resources and services.